ANA6 RJAA-KLAX
Flight info
| Callsign | ANA6 |
|---|---|
| Flight time | N/A |
| Altitude | 33000 |
| Route | GULBO Y808 NOLAX Y814 AVBET OTR11 LEPKI DCT 41N160E/N0486F350 42N170E 42N180E 42N170W 42N160W 42N150W/N0473F370 41N140W 39N130W DCT DACEM DCT PAINT DCT PIRAT DCT BURGL IRNMN2 |
| Aircraft | B77W/H-SDE2FGHIJ3J4J5M1P2RWX/LB1D1 |
Departure
| Time | N/A |
|---|---|
| Airport | Narita International Airport (RJAA) |
Arrival
| Time | 2026-05-05 02:14 |
|---|---|
| Airport | Los Angeles International Airport (KLAX) |
| Time | Latitude | Longitude | Altitude | Speed | Heading |
|---|---|---|---|---|---|
| 2026-05-05 01:30 | 36.59009 | -121.68010 | 37050 ft | 491 kts | 127° |
| 2026-05-05 01:30 | 36.57023 | -121.64555 | 37054 ft | 491 kts | 127° |
| 2026-05-05 01:30 | 36.53040 | -121.57636 | 37064 ft | 492 kts | 127° |
| 2026-05-05 01:31 | 36.49050 | -121.50721 | 37047 ft | 492 kts | 128° |
| 2026-05-05 01:31 | 36.45061 | -121.43816 | 37054 ft | 491 kts | 127° |
| 2026-05-05 01:32 | 36.41071 | -121.36927 | 37040 ft | 491 kts | 128° |
| 2026-05-05 01:32 | 36.37077 | -121.30044 | 37040 ft | 491 kts | 128° |
| 2026-05-05 01:33 | 36.33083 | -121.23175 | 37024 ft | 491 kts | 128° |
| 2026-05-05 01:33 | 36.29085 | -121.16312 | 37022 ft | 490 kts | 128° |
| 2026-05-05 01:34 | 36.25089 | -121.09468 | 37021 ft | 490 kts | 128° |
| 2026-05-05 01:34 | 36.21092 | -121.02631 | 37017 ft | 490 kts | 128° |
| 2026-05-05 01:35 | 36.17092 | -120.95811 | 37005 ft | 490 kts | 128° |
| 2026-05-05 01:35 | 36.13088 | -120.88992 | 37008 ft | 490 kts | 129° |
| 2026-05-05 01:36 | 36.09107 | -120.82227 | 37015 ft | 490 kts | 129° |
| 2026-05-05 01:36 | 36.05090 | -120.75415 | 37014 ft | 490 kts | 129° |
| 2026-05-05 01:37 | 36.01073 | -120.68617 | 37014 ft | 490 kts | 129° |
| 2026-05-05 01:37 | 35.97048 | -120.61817 | 37013 ft | 491 kts | 129° |
| 2026-05-05 01:38 | 35.93014 | -120.55016 | 37016 ft | 491 kts | 129° |
| 2026-05-05 01:38 | 35.88970 | -120.48210 | 37006 ft | 491 kts | 130° |
| 2026-05-05 01:39 | 35.84926 | -120.41419 | 37027 ft | 492 kts | 130° |
| 2026-05-05 01:39 | 35.80870 | -120.34620 | 37020 ft | 492 kts | 130° |
| 2026-05-05 01:40 | 35.76834 | -120.27868 | 37022 ft | 492 kts | 130° |
| 2026-05-05 01:40 | 35.72774 | -120.21087 | 37000 ft | 492 kts | 131° |
| 2026-05-05 01:41 | 35.68715 | -120.14321 | 37011 ft | 491 kts | 131° |
| 2026-05-05 01:41 | 35.64017 | -120.08484 | 37020 ft | 469 kts | 154° |
| 2026-05-05 01:42 | 35.58388 | -120.04447 | 36991 ft | 469 kts | 155° |
| 2026-05-05 01:42 | 35.52755 | -120.00346 | 37012 ft | 471 kts | 155° |
| 2026-05-05 01:43 | 35.47162 | -119.96157 | 37001 ft | 472 kts | 154° |
| 2026-05-05 01:43 | 35.41561 | -119.91934 | 36996 ft | 472 kts | 154° |
| 2026-05-05 01:44 | 35.35986 | -119.87745 | 36861 ft | 473 kts | 155° |
| 2026-05-05 01:44 | 35.33197 | -119.85653 | 36450 ft | 469 kts | 155° |
| 2026-05-05 01:44 | 35.30426 | -119.83575 | 35898 ft | 466 kts | 155° |
| 2026-05-05 01:45 | 35.27670 | -119.81459 | 35157 ft | 469 kts | 153° |
| 2026-05-05 01:45 | 35.25014 | -119.79118 | 34470 ft | 472 kts | 150° |
| 2026-05-05 01:45 | 35.22413 | -119.76636 | 33670 ft | 475 kts | 149° |
| 2026-05-05 01:45 | 35.19820 | -119.74108 | 32892 ft | 475 kts | 149° |
| 2026-05-05 01:46 | 35.17243 | -119.71611 | 32125 ft | 473 kts | 150° |
| 2026-05-05 01:46 | 35.14646 | -119.69134 | 31253 ft | 473 kts | 150° |
| 2026-05-05 01:46 | 35.12043 | -119.66682 | 30502 ft | 471 kts | 150° |
| 2026-05-05 01:46 | 35.09439 | -119.64251 | 29858 ft | 468 kts | 150° |
| 2026-05-05 01:47 | 35.06868 | -119.61860 | 29259 ft | 461 kts | 150° |
| 2026-05-05 01:47 | 35.04326 | -119.59498 | 28636 ft | 455 kts | 150° |
| 2026-05-05 01:47 | 35.01829 | -119.57185 | 28010 ft | 449 kts | 150° |
| 2026-05-05 01:47 | 34.99342 | -119.54879 | 27351 ft | 447 kts | 150° |
| 2026-05-05 01:48 | 34.96882 | -119.52596 | 26723 ft | 443 kts | 150° |
| 2026-05-05 01:48 | 34.94483 | -119.50370 | 26411 ft | 433 kts | 150° |
| 2026-05-05 01:48 | 34.92117 | -119.48173 | 26214 ft | 421 kts | 150° |
| 2026-05-05 01:48 | 34.89815 | -119.46060 | 26042 ft | 408 kts | 150° |
| 2026-05-05 01:49 | 34.87551 | -119.44029 | 25715 ft | 401 kts | 151° |
| 2026-05-05 01:49 | 34.85307 | -119.42035 | 25242 ft | 398 kts | 151° |
| 2026-05-05 01:49 | 34.83065 | -119.40046 | 24684 ft | 399 kts | 151° |
| 2026-05-05 01:49 | 34.80821 | -119.38051 | 24165 ft | 398 kts | 150° |
| 2026-05-05 01:50 | 34.78590 | -119.36059 | 23713 ft | 397 kts | 150° |
| 2026-05-05 01:50 | 34.76370 | -119.34075 | 23302 ft | 395 kts | 149° |
| 2026-05-05 01:50 | 34.74160 | -119.32106 | 22929 ft | 390 kts | 150° |
| 2026-05-05 01:50 | 34.71968 | -119.30183 | 22495 ft | 387 kts | 150° |
| 2026-05-05 01:51 | 34.69791 | -119.28287 | 22009 ft | 384 kts | 150° |
| 2026-05-05 01:51 | 34.67645 | -119.26417 | 21534 ft | 382 kts | 149° |
| 2026-05-05 01:51 | 34.65493 | -119.24540 | 21046 ft | 379 kts | 150° |
| 2026-05-05 01:51 | 34.63352 | -119.22682 | 20595 ft | 377 kts | 149° |
| 2026-05-05 01:52 | 34.61215 | -119.20839 | 20154 ft | 374 kts | 149° |
| 2026-05-05 01:52 | 34.59105 | -119.19024 | 19746 ft | 372 kts | 149° |
| 2026-05-05 01:52 | 34.56994 | -119.17207 | 19341 ft | 369 kts | 149° |
| 2026-05-05 01:52 | 34.54912 | -119.15396 | 19047 ft | 369 kts | 148° |
| 2026-05-05 01:53 | 34.52826 | -119.13548 | 18983 ft | 372 kts | 148° |
| 2026-05-05 01:53 | 34.50739 | -119.11690 | 18648 ft | 371 kts | 148° |
| 2026-05-05 01:53 | 34.48696 | -119.09872 | 18329 ft | 367 kts | 148° |
| 2026-05-05 01:53 | 34.46648 | -119.08060 | 17968 ft | 362 kts | 148° |
| 2026-05-05 01:54 | 34.44616 | -119.06261 | 17516 ft | 360 kts | 148° |
| 2026-05-05 01:54 | 34.42594 | -119.04492 | 17072 ft | 357 kts | 148° |
| 2026-05-05 01:54 | 34.40575 | -119.02750 | 16627 ft | 355 kts | 148° |
| 2026-05-05 01:54 | 34.38568 | -119.01018 | 16190 ft | 352 kts | 148° |
| 2026-05-05 01:55 | 34.37255 | -118.99882 | 15913 ft | 351 kts | 148° |
| 2026-05-05 01:55 | 34.35267 | -118.98162 | 15488 ft | 350 kts | 148° |
| 2026-05-05 01:55 | 34.32644 | -118.95850 | 14942 ft | 348 kts | 147° |
| 2026-05-05 01:55 | 34.30737 | -118.94109 | 14510 ft | 346 kts | 147° |
| 2026-05-05 01:56 | 34.28823 | -118.92360 | 14115 ft | 344 kts | 146° |
| 2026-05-05 01:56 | 34.27528 | -118.91181 | 13837 ft | 344 kts | 147° |
| 2026-05-05 01:56 | 34.25615 | -118.89445 | 13363 ft | 342 kts | 147° |
| 2026-05-05 01:56 | 34.23743 | -118.87735 | 12945 ft | 341 kts | 146° |
| 2026-05-05 01:57 | 34.21864 | -118.86006 | 12518 ft | 339 kts | 146° |
| 2026-05-05 01:57 | 34.19996 | -118.84286 | 12224 ft | 333 kts | 146° |
| 2026-05-05 01:57 | 34.18185 | -118.82621 | 12146 ft | 321 kts | 146° |
| 2026-05-05 01:57 | 34.16442 | -118.81014 | 12059 ft | 310 kts | 145° |
| 2026-05-05 01:58 | 34.14826 | -118.79359 | 11931 ft | 301 kts | 141° |
| 2026-05-05 01:58 | 34.13288 | -118.77661 | 11634 ft | 298 kts | 141° |
| 2026-05-05 01:58 | 34.11766 | -118.75969 | 11334 ft | 296 kts | 141° |
| 2026-05-05 01:58 | 34.10258 | -118.74302 | 11018 ft | 294 kts | 141° |
| 2026-05-05 01:59 | 34.08757 | -118.72658 | 10675 ft | 288 kts | 141° |
| 2026-05-05 01:59 | 34.07281 | -118.71052 | 10201 ft | 284 kts | 142° |
| 2026-05-05 01:59 | 34.05791 | -118.69446 | 9715 ft | 290 kts | 141° |
| 2026-05-05 01:59 | 34.04296 | -118.67821 | 9488 ft | 286 kts | 140° |
| 2026-05-05 02:00 | 34.03106 | -118.65954 | 9163 ft | 284 kts | 116° |
| 2026-05-05 02:00 | 34.02667 | -118.63630 | 8723 ft | 284 kts | 96° |
| 2026-05-05 02:00 | 34.02478 | -118.61254 | 8374 ft | 285 kts | 98° |
| 2026-05-05 02:00 | 34.02258 | -118.58889 | 8114 ft | 282 kts | 98° |
| 2026-05-05 02:01 | 34.02042 | -118.56587 | 8059 ft | 271 kts | 98° |
| 2026-05-05 02:01 | 34.01833 | -118.54372 | 7909 ft | 264 kts | 98° |
| 2026-05-05 02:01 | 34.01629 | -118.52182 | 7643 ft | 261 kts | 98° |
| 2026-05-05 02:01 | 34.01424 | -118.50025 | 7421 ft | 256 kts | 98° |
| 2026-05-05 02:02 | 34.01229 | -118.47936 | 7210 ft | 252 kts | 98° |
| 2026-05-05 02:02 | 34.01044 | -118.45866 | 6985 ft | 244 kts | 93° |
| 2026-05-05 02:02 | 34.01223 | -118.43841 | 6803 ft | 244 kts | 78° |
| 2026-05-05 02:02 | 34.01608 | -118.41827 | 6612 ft | 248 kts | 77° |
| 2026-05-05 02:03 | 34.01996 | -118.39794 | 6407 ft | 249 kts | 77° |
| 2026-05-05 02:03 | 34.02364 | -118.37760 | 6163 ft | 246 kts | 78° |
| 2026-05-05 02:03 | 34.02717 | -118.35757 | 5866 ft | 243 kts | 79° |
| 2026-05-05 02:03 | 34.02974 | -118.33730 | 5481 ft | 244 kts | 84° |
| 2026-05-05 02:04 | 34.03170 | -118.31704 | 5199 ft | 242 kts | 84° |
| 2026-05-05 02:04 | 34.03362 | -118.29699 | 4964 ft | 237 kts | 84° |
| 2026-05-05 02:04 | 34.03561 | -118.27736 | 4702 ft | 234 kts | 84° |
| 2026-05-05 02:04 | 34.03753 | -118.25792 | 4367 ft | 233 kts | 84° |
| 2026-05-05 02:05 | 34.03934 | -118.23861 | 4132 ft | 228 kts | 85° |
| 2026-05-05 02:05 | 34.04098 | -118.22030 | 4096 ft | 213 kts | 84° |
| 2026-05-05 02:05 | 34.04273 | -118.20301 | 3986 ft | 204 kts | 83° |
| 2026-05-05 02:05 | 34.04447 | -118.18594 | 4002 ft | 206 kts | 83° |
| 2026-05-05 02:06 | 34.04625 | -118.16857 | 3983 ft | 208 kts | 85° |
| 2026-05-05 02:06 | 34.04786 | -118.15126 | 3985 ft | 207 kts | 84° |
| 2026-05-05 02:06 | 34.04964 | -118.13428 | 3965 ft | 203 kts | 84° |
| 2026-05-05 02:06 | 34.05120 | -118.11730 | 3991 ft | 204 kts | 90° |
| 2026-05-05 02:07 | 34.04775 | -118.10139 | 3987 ft | 199 kts | 129° |
| 2026-05-05 02:07 | 34.03689 | -118.09132 | 4022 ft | 198 kts | 168° |
| 2026-05-05 02:07 | 34.02369 | -118.09018 | 4012 ft | 189 kts | 190° |
| 2026-05-05 02:07 | 34.01155 | -118.09550 | 3988 ft | 183 kts | 219° |
| 2026-05-05 02:08 | 34.00322 | -118.10642 | 3991 ft | 175 kts | 239° |
| 2026-05-05 02:08 | 33.99765 | -118.11941 | 3905 ft | 174 kts | 243° |
| 2026-05-05 02:08 | 33.99140 | -118.13251 | 3838 ft | 179 kts | 240° |
| 2026-05-05 02:08 | 33.98523 | -118.14538 | 3698 ft | 175 kts | 242° |
| 2026-05-05 02:09 | 33.97944 | -118.15806 | 3611 ft | 172 kts | 248° |
| 2026-05-05 02:09 | 33.97674 | -118.17199 | 3590 ft | 175 kts | 261° |
| 2026-05-05 02:09 | 33.97462 | -118.18677 | 3480 ft | 179 kts | 260° |
| 2026-05-05 02:09 | 33.97279 | -118.20146 | 3383 ft | 178 kts | 262° |
| 2026-05-05 02:10 | 33.97117 | -118.21641 | 3160 ft | 180 kts | 262° |
| 2026-05-05 02:10 | 33.96963 | -118.23128 | 2916 ft | 176 kts | 262° |
| 2026-05-05 02:10 | 33.96816 | -118.24566 | 2705 ft | 171 kts | 262° |
| 2026-05-05 02:10 | 33.96671 | -118.25972 | 2457 ft | 167 kts | 262° |
| 2026-05-05 02:11 | 33.96527 | -118.27390 | 2257 ft | 172 kts | 262° |
| 2026-05-05 02:11 | 33.96379 | -118.28818 | 2035 ft | 166 kts | 263° |
| 2026-05-05 02:11 | 33.96245 | -118.30131 | 1789 ft | 151 kts | 262° |
| 2026-05-05 02:11 | 33.96123 | -118.31320 | 1584 ft | 133 kts | 262° |
| 2026-05-05 02:12 | 33.96015 | -118.32368 | 1420 ft | 126 kts | 263° |
| 2026-05-05 02:12 | 33.95787 | -118.34593 | 1058 ft | 138 kts | 261° |
| 2026-05-05 02:12 | 33.95674 | -118.35688 | 860 ft | 128 kts | 263° |
| 2026-05-05 02:13 | 33.95565 | -118.36762 | 662 ft | 134 kts | 260° |
| 2026-05-05 02:13 | 33.95445 | -118.37895 | 509 ft | 136 kts | 261° |
| 2026-05-05 02:13 | 33.95334 | -118.39009 | 317 ft | 132 kts | 259° |
| 2026-05-05 02:13 | 33.95225 | -118.40097 | 160 ft | 133 kts | 259° |
| 2026-05-05 02:14 | 33.95111 | -118.41171 | 100 ft | 115 kts | 263° |
| 2026-05-05 02:14 | 33.95043 | -118.41844 | 99 ft | 46 kts | 262° |
| 2026-05-05 02:14 | 33.95006 | -118.42068 | 99 ft | 19 kts | 249° |
| 2026-05-05 02:14 | 33.94946 | -118.42185 | 103 ft | 14 kts | 227° |
| 2026-05-05 02:15 | 33.94878 | -118.42256 | 102 ft | 11 kts | 210° |
| 2026-05-05 02:15 | 33.94803 | -118.42279 | 101 ft | 11 kts | 184° |
| 2026-05-05 02:15 | 33.94723 | -118.42272 | 101 ft | 12 kts | 167° |
| 2026-05-05 02:15 | 33.94688 | -118.42190 | 98 ft | 12 kts | 86° |
| 2026-05-05 02:16 | 33.94698 | -118.42084 | 99 ft | 13 kts | 83° |
| 2026-05-05 02:16 | 33.94709 | -118.41971 | 98 ft | 14 kts | 83° |
| 2026-05-05 02:16 | 33.94721 | -118.41853 | 98 ft | 15 kts | 83° |
| 2026-05-05 02:16 | 33.94734 | -118.41727 | 99 ft | 15 kts | 83° |
| 2026-05-05 02:17 | 33.94746 | -118.41601 | 101 ft | 15 kts | 83° |
| 2026-05-05 02:17 | 33.94759 | -118.41476 | 102 ft | 13 kts | 83° |
| 2026-05-05 02:17 | 33.94758 | -118.41419 | 101 ft | 6 kts | 114° |
| 2026-05-05 02:17 | 33.94719 | -118.41390 | 98 ft | 7 kts | 162° |
| 2026-05-05 02:18 | 33.94665 | -118.41380 | 99 ft | 8 kts | 172° |
| 2026-05-05 02:18 | 33.94606 | -118.41370 | 99 ft | 9 kts | 173° |
| 2026-05-05 02:18 | 33.94542 | -118.41361 | 100 ft | 10 kts | 173° |
| 2026-05-05 02:18 | 33.94474 | -118.41351 | 98 ft | 10 kts | 173° |
| 2026-05-05 02:19 | 33.94404 | -118.41341 | 99 ft | 10 kts | 173° |
| 2026-05-05 02:19 | 33.94331 | -118.41330 | 98 ft | 11 kts | 173° |
| 2026-05-05 02:19 | 33.94272 | -118.41305 | 100 ft | 9 kts | 128° |
| 2026-05-05 02:19 | 33.94249 | -118.41237 | 98 ft | 9 kts | 131° |
| 2026-05-05 02:20 | 33.94191 | -118.41210 | 100 ft | 9 kts | 171° |
| 2026-05-05 02:20 | 33.94125 | -118.41200 | 100 ft | 10 kts | 173° |
| 2026-05-05 02:20 | 33.94096 | -118.41171 | 100 ft | 4 kts | 115° |
| 2026-05-05 02:20 | 33.94095 | -118.41133 | 99 ft | 5 kts | 83° |
| 2026-05-05 02:21 | 33.94099 | -118.41091 | 100 ft | 3 kts | 83° |
| 2026-05-05 02:21 | 33.94100 | -118.41080 | 98 ft | 0 kts | 83° |